Time;durP1;ratioP1;P1;durP2;ratioP2;P2;SDS_P1;SDS_P2;PMS_P1;PMS_P2;Temp;Humidity;BMP_temperature;BMP_pressure;BME280_temperature;BME280_humidity;BME280_pressure;Samples;Min_cycle;Max_cycle;Signal;HPM_P1;HPM_P2
2022/11/24 05:22:33;;;;;;;7.40;1.63;;;;;;;9.03;98.24;99697.41;5088852;28;20739;-66
2022/11/24 05:24:58;;;;;;;3.47;0.77;;;;;;;9.07;97.73;99696.91;5088926;28;20040;-66
2022/11/24 05:27:24;;;;;;;8.57;1.00;;;;;;;9.15;96.72;99702.16;5088800;28;20058;-65
2022/11/24 05:29:49;;;;;;;3.83;1.13;;;;;;;9.14;97.81;99699.66;5088799;28;20460;-66
2022/11/24 05:32:15;;;;;;;0.98;0.88;;;;;;;9.13;98.67;99703.34;5090008;28;20424;-67
2022/11/24 05:34:40;;;;;;;1.25;0.90;;;;;;;9.18;99.59;99720.38;5088757;28;20031;-66
2022/11/24 05:37:07;;;;;;;4.43;0.90;;;;;;;9.12;100.00;99717.59;5088690;28;20116;-66
2022/11/24 05:39:33;;;;;;;3.05;1.08;;;;;;;9.08;100.00;99714.47;5088697;28;20443;-66
2022/11/24 05:42:39;;;;;;;4.10;0.93;;;;;;;9.02;100.00;99714.34;5088141;28;20066;-66
2022/11/24 05:44:46;;;;;;;5.50;1.17;;;;;;;8.96;100.00;99716.72;5088543;28;20040;-65
2022/11/24 05:47:12;;;;;;;3.28;1.13;;;;;;;8.92;100.00;99715.41;5088462;28;20042;-66
2022/11/24 05:49:37;;;;;;;0.90;0.73;;;;;;;8.98;100.00;99717.34;5088561;28;20064;-66
2022/11/24 05:52:02;;;;;;;7.07;2.13;;;;;;;8.95;100.00;99720.38;5088000;28;20044;-66
2022/11/24 05:54:28;;;;;;;3.40;1.25;;;;;;;8.92;100.00;99739.31;5088526;28;20072;-67
2022/11/24 05:56:55;;;;;;;1.75;1.02;;;;;;;8.87;100.00;99741.69;5088215;28;20392;-66
2022/11/24 05:59:20;;;;;;;3.50;0.88;;;;;;;8.79;100.00;99746.19;5088214;28;20032;-67
2022/11/24 06:01:46;;;;;;;2.63;1.08;;;;;;;8.75;100.00;99734.28;5088063;28;20054;-66
2022/11/24 06:04:11;;;;;;;6.93;1.13;;;;;;;8.67;100.00;99746.59;5088292;28;20066;-66
2022/11/24 06:06:36;;;;;;;2.88;0.70;;;;;;;8.68;100.00;99758.03;5088020;28;20485;-64
2022/11/24 06:09:02;;;;;;;1.73;1.08;;;;;;;8.59;100.00;99761.72;5086924;28;20029;-66
2022/11/24 06:11:28;;;;;;;4.75;1.95;;;;;;;8.56;100.00;99770.03;5087565;28;20476;-65
2022/11/24 06:13:53;;;;;;;3.42;1.20;;;;;;;8.50;100.00;99776.84;5088098;28;20123;-66
2022/11/24 06:16:19;;;;;;;5.65;1.42;;;;;;;8.51;100.00;99782.97;5087946;28;20066;-66
2022/11/24 06:18:44;;;;;;;6.45;1.30;;;;;;;8.50;100.00;99781.34;5086696;28;20052;-66
2022/11/24 06:21:10;;;;;;;2.10;0.95;;;;;;;8.51;100.00;99789.13;5087567;28;20036;-66
2022/11/24 06:23:35;;;;;;;5.00;1.15;;;;;;;8.51;100.00;99786.47;5086661;28;20043;-66
2022/11/24 06:26:00;;;;;;;6.72;1.10;;;;;;;8.49;100.00;99793.78;5087688;28;20059;-66
2022/11/24 06:28:27;;;;;;;2.08;0.70;;;;;;;8.48;100.00;99809.88;5087707;28;20075;-66
2022/11/24 06:30:52;;;;;;;4.35;0.85;;;;;;;8.49;100.00;99798.25;5087544;28;20393;-66
2022/11/24 06:33:19;;;;;;;3.35;0.80;;;;;;;8.50;100.00;99807.88;5077696;28;20060;-66
2022/11/24 06:35:44;;;;;;;4.15;1.05;;;;;;;8.43;100.00;99818.34;5074234;28;20056;-66
2022/11/24 06:38:09;;;;;;;2.97;0.80;;;;;;;8.44;100.00;99825.31;5074048;28;20083;-65
2022/11/24 06:40:35;;;;;;;3.03;0.82;;;;;;;8.37;100.00;99830.47;5073603;28;20041;-66
2022/11/24 06:43:00;;;;;;;3.78;0.88;;;;;;;8.37;100.00;99819.03;5074022;28;20044;-65
2022/11/24 06:45:26;;;;;;;5.43;1.52;;;;;;;8.34;100.00;99827.28;5073872;28;20486;-65
2022/11/24 06:47:55;;;;;;;6.07;1.65;;;;;;;8.36;100.00;99826.16;5073909;28;20040;-65
2022/11/24 06:50:21;;;;;;;3.90;1.85;;;;;;;8.28;100.00;99835.91;5073503;28;20040;-66
2022/11/24 06:52:46;;;;;;;5.80;1.73;;;;;;;8.26;100.00;99838.75;5072556;28;20105;-66
2022/11/24 06:55:11;;;;;;;7.00;1.17;;;;;;;8.22;100.00;99831.31;5074003;28;20078;-65
2022/11/24 06:57:37;;;;;;;2.53;0.95;;;;;;;8.20;100.00;99839.41;5073747;28;20044;-66
2022/11/24 07:00:04;;;;;;;2.47;0.70;;;;;;;8.20;100.00;99839.41;5073616;28;20048;-67
2022/11/24 07:02:30;;;;;;;6.55;1.75;;;;;;;8.19;100.00;99845.72;5073600;28;20028;-65
2022/11/24 07:04:55;;;;;;;1.60;0.95;;;;;;;8.18;100.00;99844.06;5073589;28;20457;-66
2022/11/24 07:07:20;;;;;;;3.10;1.00;;;;;;;8.15;100.00;99847.06;5073344;28;20488;-66
2022/11/24 07:09:46;;;;;;;6.43;1.20;;;;;;;8.13;100.00;99849.03;5073467;28;20048;-64
2022/11/24 07:12:11;;;;;;;2.92;0.88;;;;;;;8.09;100.00;99851.22;5073090;28;20048;-66
2022/11/24 07:14:36;;;;;;;2.17;0.88;;;;;;;8.07;100.00;99844.41;5073630;28;20040;-66
2022/11/24 07:17:03;;;;;;;2.60;1.17;;;;;;;8.08;100.00;99836.25;5073303;28;20040;-66
2022/11/24 07:19:29;;;;;;;6.30;1.42;;;;;;;8.07;100.00;99844.41;5073377;28;20041;-66
2022/11/24 07:21:54;;;;;;;8.45;1.27;;;;;;;8.01;100.00;99851.19;5072882;28;20133;-65
2022/11/24 07:24:20;;;;;;;3.97;0.95;;;;;;;8.00;100.00;99840.75;5073134;28;20045;-66
2022/11/24 07:26:45;;;;;;;4.38;0.85;;;;;;;7.99;100.00;99842.56;5073052;28;20666;-66
2022/11/24 07:29:10;;;;;;;3.47;1.20;;;;;;;7.92;100.00;99835.47;5073145;28;20075;-67
2022/11/24 07:31:36;;;;;;;2.38;0.88;;;;;;;8.00;100.00;99854.84;5072721;28;20037;-67
2022/11/24 07:34:01;;;;;;;1.08;0.80;;;;;;;8.02;100.00;99867.94;5073020;28;20047;-65
2022/11/24 07:36:27;;;;;;;3.15;1.40;;;;;;;8.02;100.00;99873.22;5072960;28;20044;-66
2022/11/24 07:38:52;;;;;;;1.30;1.05;;;;;;;8.07;100.00;99878.88;5072851;28;20040;-65
2022/11/24 07:41:19;;;;;;;4.07;0.93;;;;;;;8.03;100.00;99885.53;5072482;28;20028;-67
2022/11/24 07:43:45;;;;;;;2.90;0.93;;;;;;;8.02;100.00;99894.44;5072275;28;20102;-67
2022/11/24 07:46:15;;;;;;;1.23;0.75;;;;;;;8.02;100.00;99894.44;5071392;28;20587;-67
2022/11/24 07:48:40;;;;;;;1.70;0.77;;;;;;;7.98;100.00;99882.53;5072933;28;20093;-67
2022/11/24 07:51:06;;;;;;;3.35;0.93;;;;;;;7.90;100.00;99883.38;5071038;28;20036;-66
2022/11/24 07:53:33;;;;;;;2.03;0.70;;;;;;;7.92;100.00;99897.28;5072745;28;20068;-67
2022/11/24 07:56:00;;;;;;;0.70;0.63;;;;;;;7.99;100.00;99902.75;5072594;28;20029;-66
2022/11/24 07:58:28;;;;;;;2.50;0.80;;;;;;;7.96;100.00;99906.59;5072449;28;20047;-70
2022/11/24 08:00:53;;;;;;;3.83;0.90;;;;;;;7.92;100.00;99904.41;5072288;28;20029;-70
2022/11/24 08:03:19;;;;;;;1.52;0.57;;;;;;;7.96;100.00;99905.75;5072467;28;20374;-71
2022/11/24 08:05:53;;;;;;;1.20;0.57;;;;;;;7.99;100.00;99916.03;5072200;28;20059;-70
2022/11/24 08:08:18;;;;;;;0.60;0.47;;;;;;;7.98;100.00;99927.63;5072155;28;20032;-70
2022/11/24 08:10:44;;;;;;;2.55;0.70;;;;;;;7.98;100.00;99925.81;5071839;28;20112;-70
2022/11/24 08:13:09;;;;;;;1.02;0.60;;;;;;;7.99;100.00;99937.25;5072266;28;20043;-70
2022/11/24 08:15:34;;;;;;;0.95;0.63;;;;;;;7.99;100.00;99934.59;5072172;28;20484;-70
2022/11/24 08:18:01;;;;;;;1.27;0.60;;;;;;;8.01;100.00;99932.59;5072139;28;20036;-69
2022/11/24 08:20:26;;;;;;;0.73;0.60;;;;;;;8.08;100.00;99942.38;5071719;28;20485;-69
2022/11/24 08:22:56;;;;;;;1.10;1.00;;;;;;;8.15;100.00;99946.06;5072012;28;20042;-71
2022/11/24 08:25:24;;;;;;;1.67;0.50;;;;;;;8.18;100.00;99947.53;5071793;28;20097;-71
2022/11/24 08:27:49;;;;;;;0.52;0.38;;;;;;;8.24;100.00;99946.06;5072055;28;20043;-70
2022/11/24 08:30:15;;;;;;;0.38;0.32;;;;;;;8.23;100.00;99963.81;5071547;28;20036;-70
2022/11/24 08:32:40;;;;;;;3.20;0.45;;;;;;;8.26;100.00;99963.44;5071399;28;20075;-69
2022/11/24 08:35:22;;;;;;;1.65;0.40;;;;;;;8.28;100.00;99958.84;5054020;28;20085;-70
2022/11/24 08:37:48;;;;;;;1.20;0.90;;;;;;;8.30;100.00;99950.69;5068827;28;20048;-69
2022/11/24 08:40:13;;;;;;;1.10;0.88;;;;;;;8.28;100.00;99963.28;5071406;28;20173;-70
2022/11/24 08:42:39;;;;;;;1.95;1.00;;;;;;;8.31;100.00;99963.78;5071790;28;20044;-70
2022/11/24 08:45:05;;;;;;;0.50;0.40;;;;;;;8.35;100.00;99959.84;5071874;28;20079;-69
2022/11/24 08:47:30;;;;;;;2.63;0.68;;;;;;;8.42;100.00;99973.28;5071750;28;20024;-69
2022/11/24 08:49:55;;;;;;;1.10;0.77;;;;;;;8.48;100.00;99969.16;5071033;28;20028;-70
2022/11/24 08:52:21;;;;;;;0.30;0.30;;;;;;;8.40;100.00;99972.63;5071131;28;20036;-69
2022/11/24 08:54:46;;;;;;;4.70;0.93;;;;;;;8.41;100.00;99969.81;5071760;28;20040;-70
2022/11/24 08:57:15;;;;;;;2.97;0.38;;;;;;;8.42;100.00;99978.59;5071464;28;20036;-70
2022/11/24 08:59:40;;;;;;;1.27;0.52;;;;;;;8.43;100.00;99967.81;5069854;28;20060;-70
2022/11/24 09:02:10;;;;;;;0.98;0.30;;;;;;;8.46;100.00;99987.06;5070059;28;20082;-70
2022/11/24 09:04:36;;;;;;;3.10;1.00;;;;;;;8.45;100.00;99996.84;5069420;28;20094;-70
2022/11/24 09:07:01;;;;;;;0.60;0.50;;;;;;;8.47;100.00;99991.34;5071518;28;20033;-70
2022/11/24 09:09:27;;;;;;;0.20;0.20;;;;;;;8.48;100.00;99987.72;5071675;28;20036;-70
2022/11/24 09:11:52;;;;;;;0.30;0.30;;;;;;;8.55;100.00;99996.69;5070652;28;20056;-69
2022/11/24 09:14:18;;;;;;;0.50;0.40;;;;;;;8.54;100.00;100005.63;5071233;28;20700;-70
2022/11/24 09:16:43;;;;;;;0.82;0.40;;;;;;;8.54;100.00;100011.78;5070067;28;20049;-70
2022/11/24 09:19:09;;;;;;;2.15;0.88;;;;;;;8.53;100.00;100011.94;5071164;28;20032;-70
2022/11/24 09:21:38;;;;;;;1.10;0.45;;;;;;;8.53;100.00;100023.38;5070380;28;20036;-71
2022/11/24 09:24:06;;;;;;;1.45;0.40;;;;;;;8.49;100.00;100029.22;5071245;28;20166;-70
2022/11/24 09:26:32;;;;;;;;;;;;;;;8.46;100.00;100026.88;5071390;28;20032;-70
2022/11/24 09:28:59;;;;;;;1.00;0.75;;;;;;;8.51;100.00;100027.22;5071195;28;19912;-69
2022/11/24 09:31:32;;;;;;;0.73;0.47;;;;;;;8.50;100.00;100036.19;5070284;28;20777;-70
2022/11/24 09:33:58;;;;;;;0.30;0.30;;;;;;;8.52;100.00;100034.19;5071261;28;20056;-70
2022/11/24 09:36:24;;;;;;;2.67;0.73;;;;;;;8.53;100.00;100049.94;5070820;28;20040;-70
2022/11/24 09:38:50;;;;;;;0.90;0.50;;;;;;;8.53;100.00;100039.31;5071194;28;20519;-70
2022/11/24 09:41:34;;;;;;;1.08;0.50;;;;;;;8.56;100.00;100051.44;5070814;28;20043;-70
2022/11/24 09:44:37;;;;;;;1.95;0.60;;;;;;;8.59;100.00;100062.56;5070915;28;20032;-70
2022/11/24 09:47:14;;;;;;;0.57;0.57;;;;;;;8.57;100.00;100066.38;5070945;28;20393;-70
2022/11/24 09:50:04;;;;;;;0.80;0.43;;;;;;;8.58;100.00;100052.94;5071018;28;20044;-70
2022/11/24 09:52:37;;;;;;;2.13;0.55;;;;;;;8.56;100.00;100057.59;5070510;28;20033;-70
2022/11/24 09:55:04;;;;;;;1.60;0.60;;;;;;;8.61;100.00;100073.03;5070710;28;20477;-70
2022/11/24 09:57:35;;;;;;;2.85;0.93;;;;;;;8.52;100.00;100066.03;5071019;28;20032;-70
2022/11/24 10:00:10;;;;;;;3.13;0.75;;;;;;;8.42;100.00;100061.72;5070655;28;20056;-69
2022/11/24 10:02:37;;;;;;;2.55;0.90;;;;;;;8.45;100.00;100060.56;5069696;28;20108;-70
2022/11/24 10:05:04;;;;;;;4.68;1.33;;;;;;;8.42;100.00;100058.22;5070766;28;20155;-70
2022/11/24 10:07:41;;;;;;;0.93;0.82;;;;;;;8.42;100.00;100056.41;5071230;28;20044;-69
2022/11/24 10:10:22;;;;;;;3.15;1.13;;;;;;;8.51;100.00;100059.91;5074402;28;20036;-69
2022/11/24 10:13:09;;;;;;;1.52;0.90;;;;;;;9.16;100.00;100064.38;5074545;28;20124;-69
2022/11/24 10:15:52;;;;;;;4.63;1.58;;;;;;;10.32;100.00;100062.78;5073179;28;20072;-69
2022/11/24 10:18:29;;;;;;;4.80;1.20;;;;;;;11.25;100.00;100067.03;5074380;28;20428;-69
2022/11/24 10:21:14;;;;;;;2.42;1.45;;;;;;;11.99;94.62;100072.38;5073941;28;20062;-70
2022/11/24 10:24:11;;;;;;;6.20;1.30;;;;;;;12.50;91.58;100064.34;5074222;28;20691;-70
2022/11/24 10:26:39;;;;;;;1.65;0.65;;;;;;;12.94;89.29;100063.31;5074238;28;20036;-70
2022/11/24 10:29:23;;;;;;;;;;;;;;;13.63;86.24;100068.78;5074688;28;20028;-70
2022/11/24 10:31:53;;;;;;;3.50;1.15;;;;;;;14.18;80.03;100068.81;5073731;28;20022;-70
2022/11/24 10:34:28;;;;;;;2.47;1.02;;;;;;;14.61;80.46;100067.53;5074102;28;20407;-70
2022/11/24 10:36:59;;;;;;;2.28;0.63;;;;;;;14.81;75.78;100062.19;5074049;28;20068;-71
2022/11/24 10:39:35;;;;;;;4.95;1.20;;;;;;;14.53;73.51;100072.25;5074084;28;20416;-70
2022/11/24 10:42:24;;;;;;;3.33;0.70;;;;;;;14.72;76.35;100076.81;5073704;28;20029;-70
2022/11/24 10:45:01;;;;;;;5.53;1.33;;;;;;;15.29;72.27;100064.66;5074252;28;20401;-70
2022/11/24 10:47:28;;;;;;;3.40;0.80;;;;;;;15.67;70.49;100066.69;5073832;28;20079;-71
2022/11/24 10:50:18;;;;;;;3.53;1.15;;;;;;;16.25;67.97;100067.50;5073794;28;20020;-70
2022/11/24 10:52:49;;;;;;;5.88;0.90;;;;;;;16.34;64.09;100065.38;5073833;28;20098;-71
2022/11/24 10:55:15;;;;;;;4.10;0.88;;;;;;;16.75;64.50;100066.78;5073816;28;20128;-71
2022/11/24 10:57:40;;;;;;;3.33;1.48;;;;;;;17.13;63.09;100068.59;5073893;28;20119;-71
2022/11/24 11:00:17;;;;;;;3.63;1.17;;;;;;;16.72;62.46;100059.19;5073518;28;20059;-72
2022/11/24 11:02:43;;;;;;;;;;;;;;;17.27;62.43;100065.53;5074064;28;20538;-72
2022/11/24 11:05:30;;;;;;;1.90;1.00;;;;;;;16.27;62.06;100070.78;5073323;28;19912;-71
2022/11/24 11:08:14;;;;;;;3.30;0.77;;;;;;;15.56;67.14;100061.94;5073615;28;20036;-71
2022/11/24 11:10:43;;;;;;;3.63;1.27;;;;;;;15.01;70.44;100061.38;5073121;28;20587;-71
2022/11/24 11:13:28;;;;;;;3.55;1.38;;;;;;;14.72;70.10;100058.03;5073371;28;20043;-70
2022/11/24 11:15:55;;;;;;;1.77;1.35;;;;;;;14.15;72.96;100059.34;5073135;28;20049;-71
2022/11/24 11:18:31;;;;;;;5.97;1.20;;;;;;;13.70;74.52;100066.16;5073170;28;20024;-71
2022/11/24 11:21:00;;;;;;;1.13;0.80;;;;;;;13.78;77.56;100066.81;5072942;28;20036;-71
2022/11/24 11:23:36;;;;;;;2.03;0.88;;;;;;;13.53;75.99;100065.63;5073214;28;20142;-71
2022/11/24 11:26:26;;;;;;;5.40;1.38;;;;;;;13.64;75.55;100065.09;5073182;28;20047;-71
2022/11/24 11:29:00;;;;;;;7.40;1.42;;;;;;;13.33;75.29;100067.34;5067938;28;20076;-71
2022/11/24 11:31:27;;;;;;;6.88;1.80;;;;;;;13.02;79.83;100073.88;5096712;22;20492;-63
2022/11/24 11:34:08;;;;;;;11.25;2.08;;;;;;;12.91;79.86;100069.03;5093531;28;20081;-64
2022/11/24 11:36:36;;;;;;;2.20;1.35;;;;;;;12.73;80.56;100074.88;5093208;28;20111;-64
2022/11/24 11:39:02;;;;;;;2.72;1.08;;;;;;;12.86;80.39;100074.16;5093515;28;20028;-63
2022/11/24 11:41:33;;;;;;;2.47;1.20;;;;;;;12.73;83.59;100081.03;5074914;28;20040;-64
2022/11/24 11:44:14;;;;;;;3.03;1.27;;;;;;;12.60;82.27;100080.91;5093280;28;20608;-64
2022/11/24 11:46:42;;;;;;;2.90;1.05;;;;;;;12.66;83.23;100080.16;5093477;28;20032;-64
2022/11/24 11:49:11;;;;;;;3.88;1.10;;;;;;;12.59;82.39;100081.94;5092980;28;20059;-64
2022/11/24 11:51:51;;;;;;;4.85;1.23;;;;;;;12.38;82.44;100071.19;5092565;28;20464;-64
2022/11/24 11:54:44;;;;;;;2.70;1.33;;;;;;;12.25;82.73;100065.72;5092978;28;20108;-64
2022/11/24 11:57:14;;;;;;;3.78;1.35;;;;;;;12.20;82.94;100063.63;5074807;28;20128;-64
2022/11/24 11:59:59;;;;;;;1.27;1.00;;;;;;;11.95;84.09;100063.13;5092918;28;20043;-64
2022/11/24 12:02:24;;;;;;;4.65;1.70;;;;;;;11.82;85.51;100071.78;5092501;28;20437;-64
2022/11/24 12:04:58;;;;;;;3.80;1.35;;;;;;;11.73;85.74;100070.19;5092799;28;20078;-64
2022/11/24 12:07:31;;;;;;;3.70;1.02;;;;;;;11.65;85.13;100073.78;5092742;28;20039;-65
2022/11/24 12:10:16;;;;;;;2.67;1.10;;;;;;;11.82;86.36;100069.13;5074328;28;20503;-64
2022/11/24 12:12:44;;;;;;;3.05;1.23;;;;;;;11.79;86.69;100077.44;5074569;28;20040;-64
2022/11/24 12:15:31;;;;;;;6.32;1.60;;;;;;;12.26;86.38;100089.59;5092564;28;20047;-64
2022/11/24 12:18:15;;;;;;;6.38;1.77;;;;;;;12.40;83.05;100082.53;5092602;28;20024;-64
2022/11/24 12:20:50;;;;;;;4.93;1.17;;;;;;;12.34;84.25;100091.31;5074492;28;20036;-64
2022/11/24 12:23:26;;;;;;;2.53;1.23;;;;;;;12.58;83.48;100090.94;5073918;28;20047;-64
2022/11/24 12:26:01;;;;;;;3.35;0.98;;;;;;;12.63;80.55;100091.19;5092644;28;20476;-64
2022/11/24 12:28:52;;;;;;;4.80;1.25;;;;;;;12.61;80.98;100087.91;5092657;28;20036;-64
2022/11/24 12:31:40;;;;;;;3.08;1.17;;;;;;;12.51;79.61;100092.72;5091490;28;20119;-64
2022/11/24 12:35:13;;;;;;;5.82;1.08;;;;;;;12.44;78.56;100089.97;5092617;28;20040;-64
2022/11/24 12:37:51;;;;;;;4.15;1.05;;;;;;;12.72;77.40;100095.41;4993949;28;20132;-64
2022/11/24 12:40:30;;;;;;;4.50;1.33;;;;;;;13.08;74.76;100094.50;5009933;28;20514;-64
2022/11/24 12:43:23;;;;;;;2.42;0.88;;;;;;;13.15;73.54;100089.19;5078968;28;20044;-64
2022/11/24 12:45:59;;;;;;;2.88;1.08;;;;;;;13.18;72.04;100083.47;5092350;28;20032;-64
2022/11/24 12:48:33;;;;;;;2.45;1.05;;;;;;;12.98;73.96;100094.84;5092323;28;20039;-64
2022/11/24 12:50:59;;;;;;;3.92;1.08;;;;;;;12.91;73.66;100088.59;5091603;28;20072;-64
2022/11/24 12:53:29;;;;;;;2.50;0.95;;;;;;;12.82;75.49;100089.75;5092019;28;20036;-64
2022/11/24 12:56:03;;;;;;;3.67;0.93;;;;;;;12.38;73.75;100096.06;5092157;28;20068;-64
2022/11/24 12:58:39;;;;;;;2.13;1.13;;;;;;;12.28;73.79;100100.06;5092124;28;20032;-64
2022/11/24 13:01:30;;;;;;;4.32;1.25;;;;;;;12.21;73.37;100103.50;5091743;28;20032;-64
2022/11/24 13:04:00;;;;;;;6.28;1.25;;;;;;;12.07;75.86;100095.50;5092118;28;20073;-64
2022/11/24 13:06:34;;;;;;;7.07;0.95;;;;;;;12.02;75.40;100100.56;5092031;28;20043;-64
2022/11/24 13:09:10;;;;;;;5.75;1.10;;;;;;;12.18;76.74;100098.50;5092271;28;20043;-64
2022/11/24 13:11:47;;;;;;;3.10;1.30;;;;;;;12.20;77.16;100091.16;5091741;28;20389;-64
2022/11/24 13:14:22;;;;;;;12.75;1.75;;;;;;;12.14;75.64;100086.56;5085920;28;20041;-65
2022/11/24 13:16:49;;;;;;;2.75;1.30;;;;;;;12.01;76.54;100090.91;5081026;28;20044;-65
2022/11/24 13:19:19;;;;;;;;;;;;;;;11.97;77.34;100101.13;5063429;28;20020;-65
2022/11/24 13:21:51;;;;;;;2.88;1.15;;;;;;;11.92;78.07;100103.50;5080229;28;19965;-64
2022/11/24 13:24:16;;;;;;;3.95;1.52;;;;;;;11.89;78.85;100109.25;5063447;28;20381;-64
2022/11/24 13:26:43;;;;;;;7.10;1.30;;;;;;;11.86;79.63;100105.06;5082435;28;20125;-64
2022/11/24 13:29:27;;;;;;;2.53;1.27;;;;;;;11.87;79.00;100105.94;5081152;28;20060;-64
2022/11/24 13:31:54;;;;;;;5.95;1.48;;;;;;;11.87;78.12;100085.41;5081252;28;20295;-64
2022/11/24 13:34:37;;;;;;;4.90;1.33;;;;;;;11.93;76.18;100090.00;5082833;28;20047;-64
2022/11/24 13:37:25;;;;;;;3.47;1.10;;;;;;;11.94;74.39;100102.34;5079630;28;20205;-64
2022/11/24 13:39:52;;;;;;;4.25;1.33;;;;;;;11.99;75.93;100099.09;5067133;28;20751;-64
2022/11/24 13:42:19;;;;;;;5.90;1.50;;;;;;;11.90;75.66;100102.88;5079805;28;20024;-66
2022/11/24 13:44:55;;;;;;;5.78;1.23;;;;;;;11.88;75.67;100100.41;5086414;28;20373;-64
2022/11/24 13:47:42;;;;;;;2.80;0.88;;;;;;;11.83;75.46;100099.31;5086664;28;20033;-65
2022/11/24 13:50:09;;;;;;;5.95;1.50;;;;;;;11.75;75.50;100102.88;5084841;28;20169;-63
2022/11/24 13:52:34;;;;;;;9.95;1.75;;;;;;;11.61;77.05;100112.53;5084158;28;20498;-64
2022/11/24 13:55:21;;;;;;;4.65;1.38;;;;;;;11.64;76.04;100095.31;5089505;28;20056;-63
2022/11/24 13:57:54;;;;;;;2.17;0.95;;;;;;;11.58;76.99;100101.38;5084597;28;20036;-63
2022/11/24 14:00:19;;;;;;;4.45;1.60;;;;;;;11.54;76.12;100095.59;5086687;28;20032;-64
2022/11/24 14:02:45;;;;;;;3.78;1.40;;;;;;;11.60;76.80;100086.84;5083248;28;20022;-64
2022/11/24 14:05:16;;;;;;;2.97;1.20;;;;;;;11.59;78.09;100092.34;5084982;28;20064;-64
2022/11/24 14:07:47;;;;;;;8.80;1.55;;;;;;;11.57;78.48;100086.38;5086138;28;20107;-63
2022/11/24 14:10:15;;;;;;;5.40;1.23;;;;;;;11.51;77.93;100085.28;5085637;28;20103;-63
2022/11/24 14:12:42;;;;;;;6.25;1.75;;;;;;;11.56;78.57;100085.56;5086210;28;20614;-63
2022/11/24 14:15:24;;;;;;;3.25;1.33;;;;;;;11.58;79.00;100086.19;5067176;28;20059;-65
2022/11/24 14:17:49;;;;;;;3.88;1.52;;;;;;;11.55;79.57;100091.91;5084513;28;20477;-63
2022/11/24 14:20:21;;;;;;;1.52;1.10;;;;;;;11.66;79.60;100088.75;5083845;28;20067;-65
2022/11/24 14:22:46;;;;;;;4.55;1.98;;;;;;;11.64;79.36;100085.47;5066004;28;20044;-65
2022/11/24 14:25:31;;;;;;;3.60;1.58;;;;;;;11.69;76.30;100084.91;5087314;28;20028;-65
2022/11/24 14:27:58;;;;;;;4.95;1.45;;;;;;;11.73;77.30;100082.69;5082890;28;20508;-63
2022/11/24 14:30:24;;;;;;;5.57;1.90;;;;;;;11.73;78.35;100085.38;5082407;28;20119;-65
2022/11/24 14:32:55;;;;;;;2.25;1.50;;;;;;;11.68;75.10;100081.44;5082728;28;20017;-62
2022/11/24 14:35:28;;;;;;;1.75;1.10;;;;;;;11.72;74.08;100086.38;5085344;28;20082;-63
2022/11/24 14:37:54;;;;;;;3.13;0.90;;;;;;;11.69;72.60;100087.59;5084790;28;20036;-63
2022/11/24 14:40:38;;;;;;;6.47;1.65;;;;;;;11.57;73.14;100083.72;5083304;28;20024;-64
2022/11/24 14:43:31;;;;;;;5.20;1.83;;;;;;;11.59;72.81;100087.84;5083360;28;20413;-63
2022/11/24 14:46:04;;;;;;;4.28;1.48;;;;;;;11.48;72.84;100084.81;5076068;28;20440;-64
2022/11/24 14:48:44;;;;;;;3.30;1.27;;;;;;;11.49;74.24;100087.31;5085181;28;20438;-63
2022/11/24 14:51:09;;;;;;;4.20;1.45;;;;;;;11.34;73.92;100087.25;5082378;28;20454;-63
2022/11/24 14:53:35;;;;;;;1.80;0.93;;;;;;;11.31;74.72;100084.16;5084590;28;20063;-64
2022/11/24 14:56:37;;;;;;;1.83;0.93;;;;;;;11.25;74.53;100090.22;5082611;28;20485;-64
2022/11/24 14:59:03;;;;;;;14.13;1.48;;;;;;;11.20;75.00;100093.41;5084887;28;20385;-63
2022/11/24 15:01:32;;;;;;;5.88;1.35;;;;;;;11.10;74.80;100099.00;5083502;28;20028;-63
2022/11/24 15:04:10;;;;;;;3.72;1.30;;;;;;;11.05;75.19;100096.06;5065316;28;20035;-63
2022/11/24 15:06:35;;;;;;;;;;;;;;;11.00;75.51;100098.41;5076987;28;20085;-63
2022/11/24 15:09:01;;;;;;;4.40;0.90;;;;;;;10.91;75.50;100096.84;5073964;28;19912;-63
2022/11/24 15:11:29;;;;;;;6.57;1.25;;;;;;;10.86;76.21;100099.19;5074016;28;20124;-61
2022/11/24 15:13:55;;;;;;;3.22;1.55;;;;;;;10.87;75.66;100098.19;5073933;28;20037;-62
2022/11/24 15:16:23;;;;;;;5.90;1.48;;;;;;;10.76;75.67;100096.78;5074099;28;20038;-64
2022/11/24 15:18:59;;;;;;;2.22;0.98;;;;;;;10.76;76.45;100095.97;5073855;28;20036;-64
2022/11/24 15:21:33;;;;;;;6.03;1.60;;;;;;;10.70;75.91;100094.00;5055644;28;20397;-64
2022/11/24 15:24:16;;;;;;;3.22;0.70;;;;;;;10.62;77.25;100092.22;5073727;28;20072;-64
2022/11/24 15:26:43;;;;;;;2.92;1.02;;;;;;;10.54;76.93;100101.09;5073614;28;20036;-64
2022/11/24 15:29:12;;;;;;;1.48;0.75;;;;;;;10.46;76.84;100103.81;5073738;28;20043;-64
2022/11/24 15:31:41;;;;;;;7.70;1.70;;;;;;;10.39;76.75;100099.38;5073093;28;20124;-64
2022/11/24 15:34:11;;;;;;;4.20;1.10;;;;;;;10.35;77.48;100106.88;5055411;28;20094;-63
2022/11/24 15:36:36;;;;;;;4.45;1.00;;;;;;;10.24;78.20;100100.13;5073431;28;20546;-64
2022/11/24 15:39:02;;;;;;;2.60;1.38;;;;;;;10.23;77.62;100108.25;5055489;28;20044;-63
2022/11/24 15:41:30;;;;;;;4.35;1.30;;;;;;;10.15;77.30;100105.59;5073078;28;20040;-64
2022/11/24 15:43:59;;;;;;;5.03;1.00;;;;;;;10.07;78.73;100098.50;5073210;28;20032;-64
2022/11/24 15:46:26;;;;;;;5.50;1.40;;;;;;;10.02;79.20;100104.34;5073258;28;20024;-63
2022/11/24 15:48:52;;;;;;;5.13;2.00;;;;;;;9.92;81.56;100103.72;5073192;28;20033;-63
2022/11/24 15:51:18;;;;;;;6.88;2.58;;;;;;;9.86;81.15;100104.41;5072755;28;20082;-64
2022/11/24 15:53:46;;;;;;;14.85;3.75;;;;;;;9.82;81.32;100111.06;5073076;28;20045;-65
2022/11/24 15:56:40;;;;;;;10.52;4.68;;;;;;;9.74;82.55;100113.75;5055222;28;20041;-63
2022/11/24 15:59:12;;;;;;;8.50;3.15;;;;;;;9.56;83.81;100110.47;5070771;28;20110;-64
2022/11/24 16:01:37;;;;;;;7.15;1.52;;;;;;;9.48;82.90;100119.31;5054882;28;20427;-64
2022/11/24 16:04:03;;;;;;;5.05;1.85;;;;;;;9.38;84.33;100122.13;5055030;28;20049;-64
2022/11/24 16:06:28;;;;;;;7.72;2.88;;;;;;;9.23;85.30;100119.34;5071988;28;20047;-64
2022/11/24 16:08:54;;;;;;;11.23;2.30;;;;;;;9.11;85.99;100119.84;5072731;28;20037;-64
2022/11/24 16:11:21;;;;;;;4.22;1.80;;;;;;;8.96;87.47;100120.50;5072261;28;20543;-64
2022/11/24 16:13:46;;;;;;;5.70;1.90;;;;;;;9.02;88.19;100123.50;5072551;28;20050;-65
2022/11/24 16:16:12;;;;;;;3.92;2.17;;;;;;;8.89;88.51;100121.34;5072593;28;20041;-65
2022/11/24 16:18:38;;;;;;;6.30;2.38;;;;;;;8.78;89.94;100125.13;5072659;28;20090;-65
2022/11/24 16:21:06;;;;;;;8.32;2.90;;;;;;;8.63;90.32;100122.31;5072081;28;20461;-64
2022/11/24 16:23:33;;;;;;;4.75;2.15;;;;;;;8.40;91.59;100132.69;5072446;28;20119;-64
2022/11/24 16:25:58;;;;;;;7.57;1.93;;;;;;;8.32;92.63;100140.63;5054798;28;20405;-64
2022/11/24 16:28:23;;;;;;;2.65;1.38;;;;;;;8.21;93.12;100142.72;5072304;28;20128;-64
2022/11/24 16:30:49;;;;;;;3.83;1.60;;;;;;;8.15;94.38;100136.25;5071651;28;20117;-64
2022/11/24 16:33:15;;;;;;;3.35;1.40;;;;;;;8.14;94.13;100137.22;5072376;28;20041;-64
2022/11/24 16:35:41;;;;;;;7.72;1.88;;;;;;;8.05;94.27;100138.19;5054356;28;20099;-64
2022/11/24 16:38:13;;;;;;;4.55;1.88;;;;;;;7.97;95.24;100138.16;5072236;28;20044;-64
2022/11/24 16:40:38;;;;;;;4.45;1.25;;;;;;;7.78;97.10;100137.41;5071779;28;20071;-65
2022/11/24 16:43:04;;;;;;;2.55;1.52;;;;;;;7.71;97.73;100132.91;5071999;28;20055;-65
2022/11/24 16:45:29;;;;;;;9.52;2.25;;;;;;;7.54;98.18;100130.13;5054316;28;20046;-64
2022/11/24 16:47:55;;;;;;;5.22;2.13;;;;;;;7.64;97.77;100134.53;5072077;28;20047;-64
2022/11/24 16:50:20;;;;;;;7.07;1.45;;;;;;;7.59;97.67;100142.94;5071668;28;20032;-64
2022/11/24 16:52:45;;;;;;;10.30;1.80;;;;;;;7.70;97.16;100139.19;5071896;28;20064;-62
2022/11/24 16:55:13;;;;;;;3.50;1.60;;;;;;;7.64;97.00;100139.81;5071913;28;20110;-64
2022/11/24 16:57:38;;;;;;;2.38;1.85;;;;;;;7.51;97.16;100133.13;5071875;28;20041;-64
2022/11/24 17:00:05;;;;;;;1.98;1.67;;;;;;;7.42;97.80;100128.72;5071790;28;20077;-64
2022/11/24 17:02:32;;;;;;;3.50;1.60;;;;;;;7.38;98.15;100134.53;5071686;28;20033;-65
2022/11/24 17:04:57;;;;;;;3.23;2.23;;;;;;;7.25;98.92;100141.06;5071863;28;20043;-64
2022/11/24 17:07:23;;;;;;;6.35;2.67;;;;;;;7.19;99.74;100138.19;5071930;28;20416;-63